createdAt,value
2018-03-25T00:01:08.763Z,69.90
2018-03-25T00:03:36.264Z,69.90
2018-03-25T00:06:03.780Z,70.00
2018-03-25T00:08:31.303Z,70.10
2018-03-25T00:10:58.811Z,71.00
2018-03-25T00:13:27.070Z,70.40
2018-03-25T00:15:54.565Z,70.40
2018-03-25T00:18:22.087Z,70.30
2018-03-25T00:20:49.592Z,70.50
2018-03-25T00:23:17.087Z,70.50
2018-03-25T00:25:44.583Z,70.50
2018-03-25T00:28:12.844Z,70.50
2018-03-25T00:30:40.339Z,70.50
2018-03-25T00:33:07.847Z,70.40
2018-03-25T00:35:36.127Z,70.80
2018-03-25T00:38:03.630Z,70.90
2018-03-25T00:40:31.168Z,70.90
2018-03-25T00:42:59.434Z,71.10
2018-03-25T00:45:27.694Z,71.20
2018-03-25T00:47:55.195Z,71.10
2018-03-25T00:50:22.691Z,71.30
2018-03-25T00:52:50.228Z,71.20
2018-03-25T00:55:18.463Z,71.30
2018-03-25T00:57:46.723Z,71.40
2018-03-25T01:00:14.231Z,71.40
2018-03-25T01:02:41.728Z,71.30
2018-03-25T01:05:09.216Z,71.20
2018-03-25T01:07:37.516Z,71.00
2018-03-25T01:10:05.019Z,70.90
2018-03-25T01:12:32.514Z,70.80
2018-03-25T01:15:00.787Z,70.60
2018-03-25T01:17:29.053Z,70.40
2018-03-25T01:19:56.655Z,70.30
2018-03-25T01:22:24.171Z,70.20
2018-03-25T01:24:51.666Z,70.00
2018-03-25T01:27:19.164Z,70.10
2018-03-25T01:29:46.654Z,69.70
2018-03-25T01:32:14.935Z,69.50
2018-03-25T01:34:43.210Z,69.40
2018-03-25T01:37:11.475Z,69.40
2018-03-25T01:39:38.972Z,69.40
2018-03-25T01:42:06.479Z,69.40
2018-03-25T01:44:33.971Z,69.50
2018-03-25T01:47:01.471Z,69.50
2018-03-25T01:49:28.969Z,69.20
2018-03-25T01:51:57.238Z,69.40
2018-03-25T01:54:24.745Z,69.40
2018-03-25T01:56:52.273Z,69.30
2018-03-25T01:59:20.578Z,69.50
2018-03-25T02:01:48.066Z,69.40
2018-03-25T02:04:15.579Z,69.70
2018-03-25T02:06:43.078Z,69.80
2018-03-25T02:09:10.571Z,69.80
2018-03-25T02:11:38.836Z,70.00
2018-03-25T02:14:06.330Z,70.00
2018-03-25T02:16:33.851Z,70.10
2018-03-25T02:19:01.351Z,70.10
2018-03-25T02:21:28.896Z,70.20
2018-03-25T02:23:57.160Z,70.30
2018-03-25T02:26:25.423Z,70.30
2018-03-25T02:28:52.932Z,70.20
2018-03-25T02:31:20.435Z,70.20
2018-03-25T02:33:47.945Z,70.10
2018-03-25T02:36:15.448Z,70.20
2018-03-25T02:38:42.954Z,70.10
2018-03-25T02:41:10.463Z,70.20
2018-03-25T02:43:37.982Z,70.10
2018-03-25T02:46:05.488Z,70.00
2018-03-25T02:48:32.999Z,70.70
2018-03-25T02:51:00.501Z,69.90
2018-03-25T02:53:27.997Z,70.10
2018-03-25T02:55:55.491Z,70.20
2018-03-25T02:58:23.000Z,70.20
2018-03-25T03:00:51.280Z,70.10
2018-03-25T03:03:19.551Z,70.20
2018-03-25T03:05:47.826Z,70.40
2018-03-25T03:08:16.095Z,70.30
2018-03-25T03:10:43.595Z,70.30
2018-03-25T03:13:11.091Z,70.40
2018-03-25T03:15:38.595Z,70.30
2018-03-25T03:18:06.147Z,70.40
2018-03-25T03:20:33.656Z,70.70
2018-03-25T03:23:01.167Z,70.70
2018-03-25T03:25:29.430Z,70.80
2018-03-25T03:27:57.705Z,71.00
2018-03-25T03:30:25.991Z,71.40
2018-03-25T03:32:54.252Z,71.50
2018-03-25T03:35:23.255Z,71.50
2018-03-25T03:37:51.543Z,71.40
2018-03-25T03:40:19.807Z,71.40
2018-03-25T03:42:48.134Z,71.60
2018-03-25T03:45:15.649Z,71.60
2018-03-25T03:47:43.918Z,71.50
2018-03-25T03:50:12.204Z,71.50
2018-03-25T03:52:40.466Z,71.40
2018-03-25T03:55:08.763Z,71.20
2018-03-25T03:57:36.255Z,71.20
2018-03-25T04:00:03.748Z,71.20
2018-03-25T04:02:31.256Z,71.40
2018-03-25T04:04:58.750Z,71.50
2018-03-25T04:07:26.251Z,71.60
2018-03-25T04:09:54.522Z,71.60
2018-03-25T04:12:22.783Z,71.50
2018-03-25T04:14:50.280Z,71.50
2018-03-25T04:17:17.776Z,71.50
2018-03-25T04:19:45.271Z,71.40
2018-03-25T04:22:13.543Z,71.40
2018-03-25T04:24:41.802Z,71.40
2018-03-25T04:27:09.299Z,71.30
2018-03-25T04:29:36.794Z,71.40
2018-03-25T04:32:04.299Z,71.30
2018-03-25T04:34:32.560Z,70.80
2018-03-25T04:37:00.067Z,70.80
2018-03-25T04:39:27.555Z,70.60
2018-03-25T04:41:55.068Z,70.60
2018-03-25T04:44:22.579Z,70.60
2018-03-25T04:46:50.071Z,70.60
2018-03-25T04:49:18.331Z,70.30
2018-03-25T04:51:46.715Z,70.20
2018-03-25T04:54:14.975Z,70.30
2018-03-25T04:56:42.483Z,70.20
2018-03-25T04:59:10.003Z,70.20
2018-03-25T05:01:38.266Z,70.40
2018-03-25T05:04:05.777Z,70.30
2018-03-25T05:06:33.275Z,70.40
2018-03-25T05:09:00.767Z,70.20
2018-03-25T05:11:29.031Z,70.20
2018-03-25T05:13:57.313Z,70.30
2018-03-25T05:16:25.599Z,70.20
2018-03-25T05:18:53.967Z,70.00
2018-03-25T05:21:22.229Z,70.00
2018-03-25T05:23:49.722Z,70.00
2018-03-25T05:26:17.235Z,70.10
2018-03-25T05:28:44.731Z,70.00
2018-03-25T05:31:13.009Z,69.70
2018-03-25T05:33:40.523Z,69.70
2018-03-25T05:36:08.022Z,69.80
2018-03-25T05:38:36.295Z,69.70
2018-03-25T05:41:04.598Z,69.80
2018-03-25T05:43:32.100Z,69.70
2018-03-25T05:45:59.612Z,69.60
2018-03-25T05:48:27.102Z,69.50
2018-03-25T05:50:54.599Z,69.40
2018-03-25T05:53:22.864Z,69.50
2018-03-25T05:55:50.387Z,69.50
2018-03-25T05:58:17.875Z,69.30
2018-03-25T06:00:45.368Z,69.10
2018-03-25T06:03:12.880Z,68.90
2018-03-25T06:05:40.372Z,68.90
2018-03-25T06:08:08.652Z,68.80
2018-03-25T06:10:36.174Z,68.70
2018-03-25T06:13:03.671Z,68.70
2018-03-25T06:15:31.927Z,67.90
2018-03-25T06:18:00.199Z,67.90
2018-03-25T06:20:27.715Z,67.70
2018-03-25T06:22:55.211Z,67.50
2018-03-25T06:25:22.703Z,66.90
2018-03-25T06:27:50.210Z,66.80
2018-03-25T06:30:17.730Z,66.30
2018-03-25T06:32:45.230Z,66.40
2018-03-25T06:35:12.738Z,66.70
2018-03-25T06:37:40.232Z,66.70
2018-03-25T06:40:07.726Z,66.50
2018-03-25T06:42:35.245Z,66.60
2018-03-25T06:45:02.748Z,66.20
2018-03-25T06:47:31.007Z,66.20
2018-03-25T06:49:58.518Z,66.20
2018-03-25T06:52:26.053Z,65.60
2018-03-25T06:54:54.332Z,65.00
2018-03-25T06:57:22.608Z,65.00
2018-03-25T06:59:51.130Z,64.60
2018-03-25T07:02:18.548Z,64.60
2018-03-25T07:04:46.806Z,64.30
2018-03-25T07:07:14.328Z,64.20
2018-03-25T07:09:41.849Z,64.00
2018-03-25T07:12:09.348Z,63.70
2018-03-25T07:14:36.863Z,63.10
2018-03-25T07:17:04.380Z,62.70
2018-03-25T07:19:32.642Z,62.60
2018-03-25T07:22:00.152Z,62.60
2018-03-25T07:24:28.424Z,62.90
2018-03-25T07:26:56.688Z,62.20
2018-03-25T07:29:24.963Z,62.30
2018-03-25T07:31:53.232Z,62.10
2018-03-25T07:34:20.731Z,62.00
2018-03-25T07:36:48.227Z,61.60
2018-03-25T07:39:15.733Z,61.40
2018-03-25T07:41:43.992Z,62.40
2018-03-25T07:44:12.439Z,61.20
2018-03-25T07:46:39.944Z,61.20
2018-03-25T07:49:08.224Z,60.50
2018-03-25T07:51:36.493Z,60.00
2018-03-25T07:54:04.756Z,59.50
2018-03-25T07:56:32.254Z,59.40
2018-03-25T07:58:59.752Z,59.80
2018-03-25T08:01:27.259Z,59.00
2018-03-25T08:03:54.825Z,59.40
2018-03-25T08:06:22.270Z,59.00
2018-03-25T08:08:49.766Z,58.90
2018-03-25T08:11:17.276Z,58.20
2018-03-25T08:13:45.551Z,57.80
2018-03-25T08:16:13.881Z,58.00
2018-03-25T08:18:41.366Z,58.00
2018-03-25T08:21:08.879Z,58.10
2018-03-25T08:23:36.383Z,57.60
2018-03-25T08:26:03.882Z,57.80
2018-03-25T08:28:31.380Z,57.80
2018-03-25T08:30:58.875Z,57.20
2018-03-25T08:33:27.186Z,57.20
2018-03-25T08:35:54.683Z,57.10
2018-03-25T08:38:22.176Z,56.70
2018-03-25T08:40:50.456Z,56.50
2018-03-25T08:43:18.731Z,55.60
2018-03-25T08:45:46.991Z,54.60
2018-03-25T08:48:15.254Z,55.10
2018-03-25T08:50:42.756Z,55.10
2018-03-25T08:53:10.259Z,55.90
2018-03-25T08:55:37.770Z,55.60
2018-03-25T08:58:05.267Z,54.90
2018-03-25T09:00:32.767Z,54.30
2018-03-25T09:03:01.047Z,54.60
2018-03-25T09:05:29.310Z,53.20
2018-03-25T09:07:56.803Z,53.20
2018-03-25T09:10:24.306Z,53.90
2018-03-25T09:12:51.804Z,53.50
2018-03-25T09:15:20.079Z,54.00
2018-03-25T09:17:48.339Z,54.10
2018-03-25T09:20:16.627Z,53.90
2018-03-25T09:22:44.883Z,53.70
2018-03-25T09:25:12.384Z,53.60
2018-03-25T09:27:39.884Z,53.70
2018-03-25T09:30:07.382Z,53.20
2018-03-25T09:32:35.651Z,53.20
2018-03-25T09:35:03.919Z,52.20
2018-03-25T09:37:32.191Z,52.10
2018-03-25T09:40:00.457Z,50.90
2018-03-25T09:42:28.740Z,52.00
2018-03-25T09:44:56.250Z,52.00
2018-03-25T09:47:23.743Z,52.50
2018-03-25T09:49:51.243Z,52.40
2018-03-25T09:52:18.758Z,51.10
2018-03-25T09:54:46.256Z,50.20
2018-03-25T09:57:13.783Z,50.10
2018-03-25T09:59:41.278Z,49.70
2018-03-25T10:15:33.316Z,48.70
2018-03-25T10:18:00.828Z,48.80
2018-03-25T10:20:28.314Z,49.10
2018-03-25T10:22:55.868Z,49.20
2018-03-25T10:25:23.367Z,48.20
2018-03-25T10:27:50.879Z,48.70
2018-03-25T10:30:19.140Z,49.10
2018-03-25T10:32:47.414Z,48.40
2018-03-25T10:35:15.694Z,47.10
2018-03-25T10:37:43.201Z,46.30
2018-03-25T10:40:10.708Z,46.20
2018-03-25T10:42:38.215Z,45.10
2018-03-25T10:45:05.748Z,46.30
2018-03-25T10:47:34.012Z,46.20
2018-03-25T10:50:02.316Z,46.10
2018-03-25T10:52:29.823Z,46.00
2018-03-25T10:54:57.331Z,46.20
2018-03-25T10:57:24.897Z,44.30
2018-03-25T10:59:52.363Z,44.60
2018-03-25T11:02:19.894Z,43.90
2018-03-25T11:04:47.451Z,44.50
2018-03-25T11:07:15.721Z,42.50
2018-03-25T11:09:43.999Z,42.20
2018-03-25T11:12:12.282Z,43.80
2018-03-25T11:14:39.803Z,43.80
2018-03-25T11:17:07.311Z,43.10
2018-03-25T11:19:34.819Z,43.20
2018-03-25T11:22:02.345Z,42.50
2018-03-25T11:24:29.859Z,42.40
2018-03-25T11:26:58.135Z,41.50
2018-03-25T11:29:26.407Z,43.20
2018-03-25T11:31:55.456Z,41.70
2018-03-25T11:34:22.995Z,41.70
2018-03-25T11:36:50.523Z,42.50
2018-03-25T11:39:18.829Z,40.50
2018-03-25T11:41:46.343Z,40.50
2018-03-25T11:44:13.853Z,42.10
2018-03-25T11:46:41.373Z,41.80
2018-03-25T11:49:09.655Z,41.10
2018-03-25T11:51:37.935Z,40.20
2018-03-25T11:54:06.350Z,40.20
2018-03-25T11:56:33.888Z,40.20
2018-03-25T11:59:01.403Z,40.00
2018-03-25T12:01:28.914Z,40.30
2018-03-25T12:03:56.562Z,39.80
2018-03-25T12:06:24.849Z,38.70
2018-03-25T12:08:52.357Z,38.70
2018-03-25T12:11:19.875Z,39.80
2018-03-25T12:13:47.367Z,39.10
2018-03-25T12:16:14.867Z,39.50
2018-03-25T12:18:43.136Z,38.90
2018-03-25T12:21:11.425Z,38.00
2018-03-25T12:23:39.697Z,37.50
2018-03-25T12:26:07.973Z,37.00
2018-03-25T12:28:36.252Z,37.70
2018-03-25T12:31:04.514Z,35.50
2018-03-25T12:33:32.824Z,38.90
2018-03-25T12:36:00.343Z,38.00
2018-03-25T12:38:29.356Z,36.90
2018-03-25T12:40:57.623Z,36.30
2018-03-25T12:43:25.896Z,35.60
2018-03-25T12:45:54.172Z,35.30
2018-03-25T12:48:21.696Z,35.60
2018-03-25T12:50:49.195Z,35.30
2018-03-25T12:53:17.484Z,34.70
2018-03-25T12:55:45.822Z,36.40
2018-03-25T12:58:13.331Z,36.30
2018-03-25T13:00:40.839Z,36.50
2018-03-25T13:03:08.354Z,36.20
2018-03-25T13:05:35.867Z,35.00
2018-03-25T13:08:03.395Z,34.50
2018-03-25T13:10:30.915Z,34.30
2018-03-25T13:12:58.428Z,34.10
2018-03-25T13:15:25.930Z,32.90
2018-03-25T13:17:54.196Z,36.40
2018-03-25T13:20:22.464Z,34.80
2018-03-25T13:22:49.982Z,34.80
2018-03-25T13:25:17.498Z,34.20
2018-03-25T13:27:45.778Z,32.30
2018-03-25T13:30:14.044Z,32.90
2018-03-25T13:32:42.354Z,31.90
2018-03-25T13:35:09.852Z,31.90
2018-03-25T13:37:37.354Z,31.90
2018-03-25T13:40:04.867Z,31.10
2018-03-25T13:42:32.388Z,33.20
2018-03-25T13:44:59.915Z,33.30
2018-03-25T13:47:28.192Z,32.70
2018-03-25T13:49:56.488Z,31.50
2018-03-25T13:52:23.991Z,31.40
2018-03-25T13:54:51.512Z,33.30
2018-03-25T13:57:19.031Z,33.90
2018-03-25T13:59:47.306Z,31.90
2018-03-25T14:02:15.629Z,32.80
2018-03-25T14:04:43.140Z,32.80
2018-03-25T14:07:10.654Z,32.50
2018-03-25T14:09:38.179Z,32.90
2018-03-25T14:12:06.454Z,33.10
2018-03-25T14:14:34.731Z,31.90
2018-03-25T14:17:03.011Z,31.10
2018-03-25T14:19:30.530Z,31.10
2018-03-25T14:21:58.027Z,30.40
2018-03-25T14:24:25.539Z,30.60
2018-03-25T14:26:53.047Z,31.10
2018-03-25T14:29:21.322Z,30.00
2018-03-25T14:31:48.843Z,30.00
2018-03-25T14:34:16.375Z,29.90
2018-03-25T14:36:43.873Z,29.00
2018-03-25T14:42:02.226Z,28.10
2018-03-25T14:44:32.864Z,27.10
2018-03-25T14:47:10.051Z,26.80
2018-03-25T14:49:54.615Z,25.80
2018-03-25T14:52:31.185Z,26.20
2018-03-25T14:55:07.066Z,26.20
2018-03-25T14:57:50.802Z,25.70
2018-03-25T15:00:25.273Z,25.10
2018-03-25T15:10:44.381Z,24.70
2018-03-25T15:13:19.317Z,23.80
2018-03-25T15:20:45.939Z,23.70
2018-03-25T15:23:24.972Z,24.00
2018-03-25T15:26:01.061Z,24.00
2018-03-25T15:28:44.273Z,23.60
2018-03-25T15:31:16.252Z,23.60
2018-03-25T15:34:01.404Z,24.20
2018-03-25T15:36:40.034Z,24.20
2018-03-25T15:39:38.107Z,24.10
2018-03-25T15:42:32.078Z,25.20
2018-03-25T15:45:16.433Z,26.10
2018-03-25T15:48:04.672Z,27.90
2018-03-25T15:50:39.297Z,27.90
2018-03-25T15:53:10.340Z,28.40
2018-03-25T15:55:45.775Z,29.50
2018-03-25T15:58:19.793Z,30.90
2018-03-25T16:03:36.929Z,31.60
2018-03-25T16:06:12.066Z,32.90
2018-03-25T16:08:48.943Z,33.90
2018-03-25T16:11:27.045Z,34.90
2018-03-25T16:14:29.727Z,35.90
2018-03-25T16:20:31.925Z,37.70
2018-03-25T16:23:12.491Z,38.30
2018-03-25T16:29:27.014Z,39.90
2018-03-25T16:32:16.824Z,41.60
2018-03-25T16:34:59.844Z,42.80
2018-03-25T16:37:45.246Z,42.80
2018-03-25T16:46:26.985Z,43.90
2018-03-25T16:49:12.158Z,44.30
2018-03-25T16:51:49.445Z,44.60
2018-03-25T17:00:14.435Z,45.60
2018-03-25T17:03:20.337Z,45.80
2018-03-25T17:06:05.723Z,46.40
2018-03-25T17:11:28.693Z,47.60
2018-03-25T17:14:12.370Z,49.70
2018-03-25T17:19:39.501Z,47.60
2018-03-25T17:22:25.384Z,48.00
2018-03-25T17:25:22.158Z,48.50
2018-03-25T17:28:22.045Z,48.40
2018-03-25T17:30:57.185Z,48.70
2018-03-25T17:33:35.834Z,49.50
2018-03-25T17:36:15.885Z,49.50
2018-03-25T17:38:49.483Z,49.60
2018-03-25T17:41:38.237Z,49.80
2018-03-25T17:44:10.915Z,50.10
2018-03-25T17:46:42.978Z,50.40
2018-03-25T17:49:14.613Z,50.50
2018-03-25T17:52:00.012Z,50.90
2018-03-25T17:54:44.973Z,50.90
2018-03-25T17:57:41.103Z,51.10
2018-03-25T18:00:28.527Z,51.50
2018-03-25T18:03:05.748Z,51.50
2018-03-25T18:05:49.437Z,51.80
2018-03-25T18:08:39.832Z,52.10
2018-03-25T18:20:56.294Z,52.10
2018-03-25T18:23:23.851Z,55.20
2018-03-25T18:26:00.447Z,53.30
2018-03-25T18:28:58.521Z,52.40
2018-03-25T18:31:49.107Z,52.30
2018-03-25T18:37:37.760Z,52.20
2018-03-25T18:43:25.514Z,52.70
2018-03-25T18:46:00.470Z,52.70
2018-03-25T18:57:55.432Z,52.90
2018-03-25T19:03:58.954Z,52.90
2018-03-25T19:06:40.805Z,53.40
2018-03-25T19:09:40.049Z,53.40
2018-03-25T19:12:30.956Z,53.50
2018-03-25T19:15:10.239Z,53.40
2018-03-25T19:17:47.221Z,53.50
2018-03-25T19:23:37.176Z,53.80
2018-03-25T19:26:21.986Z,53.90
2018-03-25T19:29:00.684Z,54.20
2018-03-25T19:31:33.584Z,54.60
2018-03-25T19:40:13.539Z,55.20
2018-03-25T19:42:50.776Z,55.20
2018-03-25T19:45:21.177Z,55.20
2018-03-25T19:47:53.316Z,55.20
2018-03-25T19:50:28.887Z,55.40
2018-03-25T19:53:06.276Z,55.40
2018-03-25T19:55:49.502Z,55.40
2018-03-25T19:58:22.365Z,55.60
2018-03-25T20:01:09.193Z,55.60
2018-03-25T20:03:51.586Z,55.80
2018-03-25T20:06:26.885Z,55.80
2018-03-25T20:09:07.906Z,55.90
2018-03-25T20:11:43.753Z,55.90
2018-03-25T20:14:21.164Z,56.00
2018-03-25T20:16:55.981Z,56.00
2018-03-25T20:19:39.405Z,56.20
2018-03-25T20:24:57.255Z,56.30
2018-03-25T20:27:48.472Z,56.60
2018-03-25T20:33:40.833Z,56.60
2018-03-25T20:36:40.843Z,56.60
2018-03-25T20:39:34.980Z,56.50
2018-03-25T20:42:19.690Z,56.80
2018-03-25T20:45:02.620Z,56.80
2018-03-25T20:47:40.931Z,56.90
2018-03-25T21:01:48.164Z,57.00
2018-03-25T21:04:22.586Z,57.00
2018-03-25T21:07:11.108Z,57.30
2018-03-25T21:09:59.205Z,57.30
2018-03-25T21:12:41.271Z,57.30
2018-03-25T21:15:23.577Z,57.30
2018-03-25T21:21:32.973Z,57.40
2018-03-25T21:29:54.123Z,57.60
2018-03-25T21:32:35.377Z,57.90
2018-03-25T21:35:16.832Z,57.70
2018-03-25T21:38:07.283Z,57.80
2018-03-25T21:43:43.878Z,58.00
2018-03-25T21:46:39.124Z,57.90
2018-03-25T21:52:20.213Z,57.90
2018-03-25T21:55:01.338Z,57.90
2018-03-25T21:57:55.341Z,58.00
2018-03-25T22:00:33.370Z,58.00
2018-03-25T22:03:18.028Z,57.80
2018-03-25T22:05:58.699Z,57.90
2018-03-25T22:11:16.029Z,58.30
2018-03-25T22:16:54.974Z,57.70
2018-03-25T22:19:31.841Z,57.60
2018-03-25T22:22:13.020Z,57.60
2018-03-25T22:24:51.744Z,57.60
2018-03-25T22:30:15.734Z,57.40
2018-03-25T22:32:56.749Z,57.30
2018-03-25T22:38:41.738Z,57.10
2018-03-25T22:41:29.821Z,57.10
2018-03-25T22:47:24.048Z,57.20
2018-03-25T22:50:04.846Z,57.10
2018-03-25T22:53:05.969Z,57.10
2018-03-25T22:56:03.574Z,57.10
2018-03-25T23:10:41.785Z,57.00
2018-03-25T23:13:38.870Z,57.50
2018-03-25T23:22:18.043Z,58.20
2018-03-25T23:24:55.797Z,57.60
2018-03-25T23:37:57.066Z,58.30
2018-03-25T23:40:40.329Z,58.20
2018-03-25T23:48:54.267Z,58.30
2018-03-25T23:57:15.039Z,58.80
